sensor_id;sensor_type;location;lat;lon;timestamp;pressure;altitude;pressure_sealevel;temperature;humidity
69306;BME280;56427;51.580;4.656;2023-09-19T00:00:22;100834.66;;;15.14;76.69
69306;BME280;56427;51.580;4.656;2023-09-19T00:02:55;100826.31;;;15.08;76.10
69306;BME280;56427;51.580;4.656;2023-09-19T00:05:28;100842.91;;;15.07;75.73
69306;BME280;56427;51.580;4.656;2023-09-19T00:07:55;100846.88;;;15.00;75.82
69306;BME280;56427;51.580;4.656;2023-09-19T00:10:31;100840.09;;;14.98;75.91
69306;BME280;56427;51.580;4.656;2023-09-19T00:12:59;100847.41;;;14.93;75.20
69306;BME280;56427;51.580;4.656;2023-09-19T00:18:47;100858.25;;;14.87;75.14
69306;BME280;56427;51.580;4.656;2023-09-19T00:21:14;100857.16;;;14.76;75.58
69306;BME280;56427;51.580;4.656;2023-09-19T00:23:40;100859.34;;;14.70;75.28
69306;BME280;56427;51.580;4.656;2023-09-19T00:26:06;100867.94;;;14.72;74.83
69306;BME280;56427;51.580;4.656;2023-09-19T00:28:31;100865.78;;;14.64;74.85
69306;BME280;56427;51.580;4.656;2023-09-19T00:30:57;100877.00;;;14.66;74.09
69306;BME280;56427;51.580;4.656;2023-09-19T00:33:26;100870.41;;;14.61;74.10
69306;BME280;56427;51.580;4.656;2023-09-19T00:35:53;100878.63;;;14.54;73.97
69306;BME280;56427;51.580;4.656;2023-09-19T00:38:19;100877.88;;;14.52;74.07
69306;BME280;56427;51.580;4.656;2023-09-19T00:40:53;100893.44;;;14.54;73.63
69306;BME280;56427;51.580;4.656;2023-09-19T00:43:19;100891.97;;;14.50;73.56
69306;BME280;56427;51.580;4.656;2023-09-19T00:45:47;100888.72;;;14.46;73.72
69306;BME280;56427;51.580;4.656;2023-09-19T00:48:14;100885.53;;;14.41;72.89
69306;BME280;56427;51.580;4.656;2023-09-19T00:50:41;100899.06;;;14.34;73.55
69306;BME280;56427;51.580;4.656;2023-09-19T00:53:07;100894.84;;;14.31;72.70
69306;BME280;56427;51.580;4.656;2023-09-19T00:55:38;100897.28;;;14.34;72.43
69306;BME280;56427;51.580;4.656;2023-09-19T00:58:04;100896.06;;;14.25;72.93
69306;BME280;56427;51.580;4.656;2023-09-19T01:00:33;100894.22;;;14.27;72.23
69306;BME280;56427;51.580;4.656;2023-09-19T01:03:00;100905.50;;;14.28;72.50
69306;BME280;56427;51.580;4.656;2023-09-19T01:05:29;100909.13;;;14.25;72.27
69306;BME280;56427;51.580;4.656;2023-09-19T01:07:55;100904.94;;;14.23;72.00
69306;BME280;56427;51.580;4.656;2023-09-19T01:10:21;100906.81;;;14.21;72.04
69306;BME280;56427;51.580;4.656;2023-09-19T01:15:31;100907.72;;;14.20;71.85
69306;BME280;56427;51.580;4.656;2023-09-19T01:23:31;100916.97;;;14.11;71.73
69306;BME280;56427;51.580;4.656;2023-09-19T01:26:30;100922.41;;;14.08;71.75
69306;BME280;56427;51.580;4.656;2023-09-19T01:32:06;100917.47;;;14.03;71.58
69306;BME280;56427;51.580;4.656;2023-09-19T01:35:04;100917.19;;;14.08;71.13
69306;BME280;56427;51.580;4.656;2023-09-19T01:37:29;100923.41;;;14.06;71.43
69306;BME280;56427;51.580;4.656;2023-09-19T01:45:23;100916.31;;;14.08;69.82
69306;BME280;56427;51.580;4.656;2023-09-19T01:47:53;100912.97;;;14.06;70.51
69306;BME280;56427;51.580;4.656;2023-09-19T01:53:24;100920.78;;;14.06;69.46
69306;BME280;56427;51.580;4.656;2023-09-19T01:55:51;100914.66;;;14.07;68.65
69306;BME280;56427;51.580;4.656;2023-09-19T01:58:21;100912.63;;;13.97;69.90
69306;BME280;56427;51.580;4.656;2023-09-19T02:00:51;100910.00;;;13.97;69.82
69306;BME280;56427;51.580;4.656;2023-09-19T02:03:20;100907.78;;;13.91;69.60
69306;BME280;56427;51.580;4.656;2023-09-19T02:05:51;100905.91;;;13.93;69.89
69306;BME280;56427;51.580;4.656;2023-09-19T02:08:20;100917.25;;;13.92;69.62
69306;BME280;56427;51.580;4.656;2023-09-19T02:10:46;100915.03;;;13.86;69.92
69306;BME280;56427;51.580;4.656;2023-09-19T02:13:20;100919.22;;;13.89;69.55
69306;BME280;56427;51.580;4.656;2023-09-19T02:15:47;100923.31;;;13.93;69.63
69306;BME280;56427;51.580;4.656;2023-09-19T02:18:13;100909.91;;;13.85;69.48
69306;BME280;56427;51.580;4.656;2023-09-19T02:20:39;100921.66;;;13.92;69.42
69306;BME280;56427;51.580;4.656;2023-09-19T02:23:06;100919.22;;;13.89;69.14
69306;BME280;56427;51.580;4.656;2023-09-19T02:25:31;100911.47;;;13.87;69.12
69306;BME280;56427;51.580;4.656;2023-09-19T02:27:57;100919.50;;;13.84;69.25
69306;BME280;56427;51.580;4.656;2023-09-19T02:30:29;100919.78;;;13.80;69.37
69306;BME280;56427;51.580;4.656;2023-09-19T02:32:54;100923.78;;;13.85;68.89
69306;BME280;56427;51.580;4.656;2023-09-19T02:35:19;100918.38;;;13.88;69.22
69306;BME280;56427;51.580;4.656;2023-09-19T02:37:46;100919.69;;;13.81;68.78
69306;BME280;56427;51.580;4.656;2023-09-19T02:40:11;100928.63;;;13.77;68.79
69306;BME280;56427;51.580;4.656;2023-09-19T02:42:55;100922.75;;;13.73;69.48
69306;BME280;56427;51.580;4.656;2023-09-19T02:45:21;100931.03;;;13.66;69.40
69306;BME280;56427;51.580;4.656;2023-09-19T02:47:48;100935.13;;;13.70;69.56
69306;BME280;56427;51.580;4.656;2023-09-19T02:50:14;100930.38;;;13.62;69.65
69306;BME280;56427;51.580;4.656;2023-09-19T02:52:42;100927.97;;;13.59;70.11
69306;BME280;56427;51.580;4.656;2023-09-19T02:55:11;100934.94;;;13.59;70.31
69306;BME280;56427;51.580;4.656;2023-09-19T02:57:39;100928.22;;;13.55;70.08
69306;BME280;56427;51.580;4.656;2023-09-19T03:00:09;100933.44;;;13.55;70.08
69306;BME280;56427;51.580;4.656;2023-09-19T03:02:38;100930.16;;;13.51;69.96
69306;BME280;56427;51.580;4.656;2023-09-19T03:05:05;100932.88;;;13.49;69.72
69306;BME280;56427;51.580;4.656;2023-09-19T03:07:31;100940.03;;;13.46;70.95
69306;BME280;56427;51.580;4.656;2023-09-19T03:09:56;100935.94;;;13.42;70.63
69306;BME280;56427;51.580;4.656;2023-09-19T03:12:22;100935.81;;;13.43;70.75
69306;BME280;56427;51.580;4.656;2023-09-19T03:14:48;100930.72;;;13.42;71.08
69306;BME280;56427;51.580;4.656;2023-09-19T03:17:13;100929.13;;;13.39;71.11
69306;BME280;56427;51.580;4.656;2023-09-19T03:19:40;100926.44;;;13.41;71.58
69306;BME280;56427;51.580;4.656;2023-09-19T03:22:05;100918.53;;;13.42;71.45
69306;BME280;56427;51.580;4.656;2023-09-19T03:24:31;100918.34;;;13.45;71.39
69306;BME280;56427;51.580;4.656;2023-09-19T03:26:58;100915.81;;;13.44;72.16
69306;BME280;56427;51.580;4.656;2023-09-19T03:29:24;100924.56;;;13.43;71.76
69306;BME280;56427;51.580;4.656;2023-09-19T03:31:50;100929.03;;;13.41;72.47
69306;BME280;56427;51.580;4.656;2023-09-19T03:34:16;100928.78;;;13.45;72.40
69306;BME280;56427;51.580;4.656;2023-09-19T03:36:42;100931.38;;;13.45;72.40
69306;BME280;56427;51.580;4.656;2023-09-19T03:39:07;100924.31;;;13.47;72.31
69306;BME280;56427;51.580;4.656;2023-09-19T03:41:32;100927.38;;;13.54;72.40
69306;BME280;56427;51.580;4.656;2023-09-19T03:43:58;100926.75;;;13.65;72.18
69306;BME280;56427;51.580;4.656;2023-09-19T03:46:24;100921.53;;;13.65;72.25
69306;BME280;56427;51.580;4.656;2023-09-19T03:48:50;100918.84;;;13.66;72.38
69306;BME280;56427;51.580;4.656;2023-09-19T03:51:16;100918.94;;;13.65;72.85
69306;BME280;56427;51.580;4.656;2023-09-19T03:53:41;100917.53;;;13.73;72.41
69306;BME280;56427;51.580;4.656;2023-09-19T03:56:06;100919.56;;;13.83;72.12
69306;BME280;56427;51.580;4.656;2023-09-19T03:58:33;100917.28;;;13.78;72.93
69306;BME280;56427;51.580;4.656;2023-09-19T04:01:03;100928.44;;;13.80;72.47
69306;BME280;56427;51.580;4.656;2023-09-19T04:03:28;100932.16;;;13.76;72.95
69306;BME280;56427;51.580;4.656;2023-09-19T04:06:01;100935.22;;;13.83;72.56
69306;BME280;56427;51.580;4.656;2023-09-19T04:08:27;100946.16;;;13.89;72.36
69306;BME280;56427;51.580;4.656;2023-09-19T04:10:54;100943.53;;;13.89;72.46
69306;BME280;56427;51.580;4.656;2023-09-19T04:13:19;100949.50;;;13.91;72.44
69306;BME280;56427;51.580;4.656;2023-09-19T04:15:44;100942.69;;;13.89;72.58
69306;BME280;56427;51.580;4.656;2023-09-19T04:18:11;100952.84;;;13.93;72.80
69306;BME280;56427;51.580;4.656;2023-09-19T04:20:37;100958.53;;;14.00;72.07
69306;BME280;56427;51.580;4.656;2023-09-19T04:23:02;100954.97;;;14.01;72.64
69306;BME280;56427;51.580;4.656;2023-09-19T04:25:30;100961.69;;;14.05;72.59
69306;BME280;56427;51.580;4.656;2023-09-19T04:27:57;100966.09;;;14.04;73.05
69306;BME280;56427;51.580;4.656;2023-09-19T04:30:24;100967.97;;;14.02;73.08
69306;BME280;56427;51.580;4.656;2023-09-19T04:32:49;100975.84;;;14.01;73.47
69306;BME280;56427;51.580;4.656;2023-09-19T04:35:16;100971.00;;;13.95;73.85
69306;BME280;56427;51.580;4.656;2023-09-19T04:37:41;100976.97;;;13.97;73.85
69306;BME280;56427;51.580;4.656;2023-09-19T04:40:10;100978.94;;;13.93;74.39
69306;BME280;56427;51.580;4.656;2023-09-19T04:42:54;100984.25;;;14.06;73.67
69306;BME280;56427;51.580;4.656;2023-09-19T04:45:23;100992.16;;;14.04;73.73
69306;BME280;56427;51.580;4.656;2023-09-19T04:47:48;100982.47;;;14.07;73.95
69306;BME280;56427;51.580;4.656;2023-09-19T04:50:14;100980.81;;;14.06;74.53
69306;BME280;56427;51.580;4.656;2023-09-19T04:52:43;100976.69;;;14.01;74.70
69306;BME280;56427;51.580;4.656;2023-09-19T04:55:13;100982.00;;;14.00;75.20
69306;BME280;56427;51.580;4.656;2023-09-19T04:57:46;100974.75;;;14.05;75.20
69306;BME280;56427;51.580;4.656;2023-09-19T05:00:22;100973.81;;;14.06;75.18
69306;BME280;56427;51.580;4.656;2023-09-19T05:02:55;100981.84;;;14.03;75.44
69306;BME280;56427;51.580;4.656;2023-09-19T05:05:24;100975.00;;;14.00;76.19
69306;BME280;56427;51.580;4.656;2023-09-19T05:07:51;100976.06;;;13.98;76.48
69306;BME280;56427;51.580;4.656;2023-09-19T05:10:19;100988.41;;;13.94;76.74
69306;BME280;56427;51.580;4.656;2023-09-19T05:12:44;100991.41;;;13.88;77.27
69306;BME280;56427;51.580;4.656;2023-09-19T05:15:14;100989.47;;;13.92;77.65
69306;BME280;56427;51.580;4.656;2023-09-19T05:17:50;100995.59;;;13.91;77.89
69306;BME280;56427;51.580;4.656;2023-09-19T05:20:16;100987.78;;;13.91;77.89
69306;BME280;56427;51.580;4.656;2023-09-19T05:22:43;100992.91;;;13.92;77.98
69306;BME280;56427;51.580;4.656;2023-09-19T05:25:12;100994.78;;;13.90;78.01
69306;BME280;56427;51.580;4.656;2023-09-19T05:27:43;100989.72;;;13.87;78.28
69306;BME280;56427;51.580;4.656;2023-09-19T05:30:09;100994.19;;;13.85;78.43
69306;BME280;56427;51.580;4.656;2023-09-19T05:32:35;100990.09;;;13.81;78.62
69306;BME280;56427;51.580;4.656;2023-09-19T05:35:01;100990.00;;;13.83;78.77
69306;BME280;56427;51.580;4.656;2023-09-19T05:37:26;100990.19;;;13.80;78.98
69306;BME280;56427;51.580;4.656;2023-09-19T05:39:51;100989.34;;;13.79;78.69
69306;BME280;56427;51.580;4.656;2023-09-19T05:42:19;100990.38;;;13.76;79.18
69306;BME280;56427;51.580;4.656;2023-09-19T05:44:44;100996.50;;;13.75;79.31
69306;BME280;56427;51.580;4.656;2023-09-19T05:47:10;100998.47;;;13.72;79.21
69306;BME280;56427;51.580;4.656;2023-09-19T05:49:35;100993.34;;;13.70;79.40
69306;BME280;56427;51.580;4.656;2023-09-19T05:52:06;100986.16;;;13.74;79.43
69306;BME280;56427;51.580;4.656;2023-09-19T05:54:32;100985.22;;;13.75;79.28
69306;BME280;56427;51.580;4.656;2023-09-19T05:57:00;100992.22;;;13.74;79.43
69306;BME280;56427;51.580;4.656;2023-09-19T05:59:25;100989.59;;;13.74;79.63
69306;BME280;56427;51.580;4.656;2023-09-19T06:01:51;100997.06;;;13.81;79.21
69306;BME280;56427;51.580;4.656;2023-09-19T06:04:17;101001.44;;;13.80;79.42
69306;BME280;56427;51.580;4.656;2023-09-19T06:06:44;100994.94;;;13.87;79.33
69306;BME280;56427;51.580;4.656;2023-09-19T06:09:10;101007.25;;;13.85;79.40
69306;BME280;56427;51.580;4.656;2023-09-19T06:11:36;101008.81;;;13.88;79.33
69306;BME280;56427;51.580;4.656;2023-09-19T06:14:04;101012.84;;;13.93;79.36
69306;BME280;56427;51.580;4.656;2023-09-19T06:16:30;101016.00;;;13.98;79.40
69306;BME280;56427;51.580;4.656;2023-09-19T06:18:57;101016.75;;;14.00;79.19
69306;BME280;56427;51.580;4.656;2023-09-19T06:21:25;101024.88;;;13.96;79.02
69306;BME280;56427;51.580;4.656;2023-09-19T06:23:53;101016.38;;;14.07;78.83
69306;BME280;56427;51.580;4.656;2023-09-19T06:26:19;101023.00;;;14.12;79.11
69306;BME280;56427;51.580;4.656;2023-09-19T06:28:45;101022.38;;;14.09;79.27
69306;BME280;56427;51.580;4.656;2023-09-19T06:31:10;101030.31;;;14.21;78.52
69306;BME280;56427;51.580;4.656;2023-09-19T06:33:37;101026.38;;;14.28;78.22
69306;BME280;56427;51.580;4.656;2023-09-19T06:36:06;101041.56;;;14.36;78.30
69306;BME280;56427;51.580;4.656;2023-09-19T06:38:32;101029.59;;;14.48;78.19
69306;BME280;56427;51.580;4.656;2023-09-19T06:41:01;101032.75;;;14.53;77.36
69306;BME280;56427;51.580;4.656;2023-09-19T06:43:31;101036.38;;;14.65;76.91
69306;BME280;56427;51.580;4.656;2023-09-19T06:45:57;101034.97;;;14.73;76.39
69306;BME280;56427;51.580;4.656;2023-09-19T06:48:24;101034.19;;;14.86;76.17
69306;BME280;56427;51.580;4.656;2023-09-19T06:50:50;101026.53;;;15.24;75.27
69306;BME280;56427;51.580;4.656;2023-09-19T06:53:16;101030.53;;;15.29;74.57
69306;BME280;56427;51.580;4.656;2023-09-19T06:55:41;101030.13;;;15.08;74.97
69306;BME280;56427;51.580;4.656;2023-09-19T06:58:11;101035.41;;;15.21;74.77
69306;BME280;56427;51.580;4.656;2023-09-19T07:00:36;101030.06;;;14.96;75.81
69306;BME280;56427;51.580;4.656;2023-09-19T07:03:05;101041.22;;;15.12;75.48
69306;BME280;56427;51.580;4.656;2023-09-19T07:05:34;101033.13;;;15.29;74.82
69306;BME280;56427;51.580;4.656;2023-09-19T07:08:08;101028.81;;;15.55;74.37
69306;BME280;56427;51.580;4.656;2023-09-19T07:10:36;101023.47;;;15.57;74.23
69306;BME280;56427;51.580;4.656;2023-09-19T07:13:05;101026.72;;;16.00;73.13
69306;BME280;56427;51.580;4.656;2023-09-19T07:15:38;101033.31;;;16.18;71.90
69306;BME280;56427;51.580;4.656;2023-09-19T07:18:07;101021.16;;;15.52;73.92
69306;BME280;56427;51.580;4.656;2023-09-19T07:20:36;101038.00;;;16.39;71.90
69306;BME280;56427;51.580;4.656;2023-09-19T07:23:02;101034.94;;;16.70;70.63
69306;BME280;56427;51.580;4.656;2023-09-19T07:25:28;101032.38;;;16.19;71.49
69306;BME280;56427;51.580;4.656;2023-09-19T07:27:58;101033.09;;;16.09;71.77
69306;BME280;56427;51.580;4.656;2023-09-19T07:30:25;101027.53;;;16.13;72.37
69306;BME280;56427;51.580;4.656;2023-09-19T07:32:51;101036.75;;;16.44;71.53
69306;BME280;56427;51.580;4.656;2023-09-19T07:35:17;101037.69;;;16.56;70.67
69306;BME280;56427;51.580;4.656;2023-09-19T07:37:45;101037.88;;;16.40;70.04
69306;BME280;56427;51.580;4.656;2023-09-19T07:40:14;101038.72;;;16.66;69.84
69306;BME280;56427;51.580;4.656;2023-09-19T07:42:40;101043.13;;;16.66;69.84
69306;BME280;56427;51.580;4.656;2023-09-19T07:45:07;101051.03;;;16.90;69.67
69306;BME280;56427;51.580;4.656;2023-09-19T07:47:33;101044.09;;;17.02;68.95
69306;BME280;56427;51.580;4.656;2023-09-19T07:50:01;101040.28;;;16.82;69.38
69306;BME280;56427;51.580;4.656;2023-09-19T07:52:29;101047.50;;;16.53;70.18
69306;BME280;56427;51.580;4.656;2023-09-19T07:54:54;101054.41;;;16.92;69.43
69306;BME280;56427;51.580;4.656;2023-09-19T07:57:22;101046.47;;;16.81;69.32
69306;BME280;56427;51.580;4.656;2023-09-19T07:59:48;101033.16;;;16.71;69.17
69306;BME280;56427;51.580;4.656;2023-09-19T08:02:13;101038.56;;;16.93;69.02
69306;BME280;56427;51.580;4.656;2023-09-19T08:04:44;101040.38;;;17.17;68.00
69306;BME280;56427;51.580;4.656;2023-09-19T08:07:14;101040.91;;;17.09;68.55
69306;BME280;56427;51.580;4.656;2023-09-19T08:09:40;101043.31;;;17.36;67.34
69306;BME280;56427;51.580;4.656;2023-09-19T08:12:06;101059.97;;;17.59;66.91
69306;BME280;56427;51.580;4.656;2023-09-19T08:14:33;101049.16;;;17.40;66.93
69306;BME280;56427;51.580;4.656;2023-09-19T08:16:59;101045.09;;;17.71;66.65
69306;BME280;56427;51.580;4.656;2023-09-19T08:19:25;101030.63;;;17.89;66.53
69306;BME280;56427;51.580;4.656;2023-09-19T08:21:57;101034.13;;;17.66;65.94
69306;BME280;56427;51.580;4.656;2023-09-19T08:24:27;101037.50;;;18.25;64.51
69306;BME280;56427;51.580;4.656;2023-09-19T08:26:54;101035.53;;;17.59;66.82
69306;BME280;56427;51.580;4.656;2023-09-19T08:29:20;101043.53;;;17.33;67.68
69306;BME280;56427;51.580;4.656;2023-09-19T08:31:46;101042.94;;;17.89;66.56
69306;BME280;56427;51.580;4.656;2023-09-19T08:34:15;101034.97;;;17.66;66.14
69306;BME280;56427;51.580;4.656;2023-09-19T08:36:40;101032.13;;;17.45;67.65
69306;BME280;56427;51.580;4.656;2023-09-19T08:39:08;101041.59;;;17.48;67.86
69306;BME280;56427;51.580;4.656;2023-09-19T08:41:34;101033.34;;;17.41;67.57
69306;BME280;56427;51.580;4.656;2023-09-19T08:43:59;101036.97;;;17.87;66.35
69306;BME280;56427;51.580;4.656;2023-09-19T08:46:30;101035.72;;;18.48;64.58
69306;BME280;56427;51.580;4.656;2023-09-19T08:49:13;101035.09;;;18.00;66.42
69306;BME280;56427;51.580;4.656;2023-09-19T08:51:46;101041.59;;;17.83;66.18
69306;BME280;56427;51.580;4.656;2023-09-19T08:54:25;101046.97;;;17.58;66.26
69306;BME280;56427;51.580;4.656;2023-09-19T08:56:54;101041.34;;;17.27;68.16
69306;BME280;56427;51.580;4.656;2023-09-19T08:59:23;101040.19;;;17.31;67.80
69306;BME280;56427;51.580;4.656;2023-09-19T09:01:49;101035.84;;;17.19;68.70
69306;BME280;56427;51.580;4.656;2023-09-19T09:04:18;101035.97;;;17.41;68.17
69306;BME280;56427;51.580;4.656;2023-09-19T09:06:46;101022.16;;;17.26;67.51
69306;BME280;56427;51.580;4.656;2023-09-19T09:09:15;101012.16;;;17.56;67.14
69306;BME280;56427;51.580;4.656;2023-09-19T09:11:40;101012.41;;;17.99;65.45
69306;BME280;56427;51.580;4.656;2023-09-19T09:14:07;101022.81;;;18.45;63.66
69306;BME280;56427;51.580;4.656;2023-09-19T09:16:36;101016.59;;;18.80;62.23
69306;BME280;56427;51.580;4.656;2023-09-19T09:19:01;101015.91;;;19.10;61.65
69306;BME280;56427;51.580;4.656;2023-09-19T09:21:28;101015.03;;;19.53;60.59
69306;BME280;56427;51.580;4.656;2023-09-19T09:23:54;101018.34;;;19.87;59.92
69306;BME280;56427;51.580;4.656;2023-09-19T09:29:04;101010.94;;;19.60;59.93
69306;BME280;56427;51.580;4.656;2023-09-19T09:31:29;101014.09;;;19.96;59.27
69306;BME280;56427;51.580;4.656;2023-09-19T09:33:56;101011.50;;;20.66;58.19
69306;BME280;56427;51.580;4.656;2023-09-19T09:36:36;101015.75;;;19.97;59.92
69306;BME280;56427;51.580;4.656;2023-09-19T09:39:03;101018.72;;;20.64;58.87
69306;BME280;56427;51.580;4.656;2023-09-19T09:41:41;101017.06;;;19.81;59.56
69306;BME280;56427;51.580;4.656;2023-09-19T09:44:16;101015.09;;;20.56;58.24
69306;BME280;56427;51.580;4.656;2023-09-19T09:46:49;101017.66;;;21.06;57.67
69306;BME280;56427;51.580;4.656;2023-09-19T09:49:22;101018.22;;;20.90;57.28
69306;BME280;56427;51.580;4.656;2023-09-19T09:52:05;101025.88;;;20.22;58.15
69306;BME280;56427;51.580;4.656;2023-09-19T09:54:34;101019.25;;;20.28;58.38
69306;BME280;56427;51.580;4.656;2023-09-19T09:57:05;101023.13;;;20.03;57.95
69306;BME280;56427;51.580;4.656;2023-09-19T10:02:17;101016.28;;;20.21;58.30
69306;BME280;56427;51.580;4.656;2023-09-19T10:04:50;101009.22;;;20.21;57.94
69306;BME280;56427;51.580;4.656;2023-09-19T10:07:34;101021.88;;;19.76;58.96
69306;BME280;56427;51.580;4.656;2023-09-19T10:10:34;101014.47;;;20.12;57.31
69306;BME280;56427;51.580;4.656;2023-09-19T10:13:07;101018.19;;;20.80;56.90
69306;BME280;56427;51.580;4.656;2023-09-19T10:15:38;101015.78;;;20.58;56.10
69306;BME280;56427;51.580;4.656;2023-09-19T10:18:07;101001.88;;;19.94;57.42
69306;BME280;56427;51.580;4.656;2023-09-19T10:20:36;101002.19;;;20.01;57.58
69306;BME280;56427;51.580;4.656;2023-09-19T10:23:09;101001.16;;;20.44;56.76
69306;BME280;56427;51.580;4.656;2023-09-19T10:25:37;101005.91;;;20.29;57.46
69306;BME280;56427;51.580;4.656;2023-09-19T10:28:06;100991.63;;;20.53;56.52
69306;BME280;56427;51.580;4.656;2023-09-19T10:30:37;100984.59;;;20.63;55.38
69306;BME280;56427;51.580;4.656;2023-09-19T10:33:04;100983.72;;;20.53;55.84
69306;BME280;56427;51.580;4.656;2023-09-19T10:35:33;100974.81;;;20.13;55.55
69306;BME280;56427;51.580;4.656;2023-09-19T10:38:03;100978.66;;;20.40;54.65
69306;BME280;56427;51.580;4.656;2023-09-19T10:40:32;100969.13;;;20.48;53.84
69306;BME280;56427;51.580;4.656;2023-09-19T10:43:05;100978.28;;;20.54;54.71
69306;BME280;56427;51.580;4.656;2023-09-19T10:45:32;100981.56;;;20.06;55.61
69306;BME280;56427;51.580;4.656;2023-09-19T10:47:59;100979.25;;;20.13;55.30
69306;BME280;56427;51.580;4.656;2023-09-19T10:50:27;100987.31;;;20.52;53.86
69306;BME280;56427;51.580;4.656;2023-09-19T10:53:00;100975.88;;;20.82;54.25
69306;BME280;56427;51.580;4.656;2023-09-19T10:55:31;100973.88;;;20.64;54.15
69306;BME280;56427;51.580;4.656;2023-09-19T10:57:58;100984.84;;;19.99;55.47
69306;BME280;56427;51.580;4.656;2023-09-19T11:00:58;100981.06;;;20.22;55.26
69306;BME280;56427;51.580;4.656;2023-09-19T11:03:31;100960.28;;;20.59;55.70
69306;BME280;56427;51.580;4.656;2023-09-19T11:08:26;100960.69;;;20.55;54.58
69306;BME280;56427;51.580;4.656;2023-09-19T11:10:52;100949.59;;;20.61;54.78
69306;BME280;56427;51.580;4.656;2023-09-19T11:13:26;100938.09;;;20.91;54.57
69306;BME280;56427;51.580;4.656;2023-09-19T11:26:50;100935.13;;;20.05;56.45
69306;BME280;56427;51.580;4.656;2023-09-19T11:29:30;100930.72;;;20.65;56.17
69306;BME280;56427;51.580;4.656;2023-09-19T11:31:57;100924.91;;;20.91;55.57
69306;BME280;56427;51.580;4.656;2023-09-19T11:34:53;100935.59;;;20.70;55.39
69306;BME280;56427;51.580;4.656;2023-09-19T11:40:08;100909.63;;;20.46;56.51
69306;BME280;56427;51.580;4.656;2023-09-19T11:42:47;100916.59;;;19.86;57.11
69306;BME280;56427;51.580;4.656;2023-09-19T11:48:07;100923.84;;;19.93;58.29
69306;BME280;56427;51.580;4.656;2023-09-19T11:50:33;100926.91;;;19.68;58.13
69306;BME280;56427;51.580;4.656;2023-09-19T11:53:00;100928.84;;;19.97;57.41
69306;BME280;56427;51.580;4.656;2023-09-19T11:55:28;100926.13;;;19.77;58.45
69306;BME280;56427;51.580;4.656;2023-09-19T11:57:59;100933.50;;;19.41;59.16
69306;BME280;56427;51.580;4.656;2023-09-19T12:00:25;100937.16;;;19.50;59.90
69306;BME280;56427;51.580;4.656;2023-09-19T12:02:55;100917.00;;;19.39;59.35
69306;BME280;56427;51.580;4.656;2023-09-19T12:05:30;100916.78;;;19.43;59.64
69306;BME280;56427;51.580;4.656;2023-09-19T12:07:59;100926.56;;;19.40;59.50
69306;BME280;56427;51.580;4.656;2023-09-19T12:10:25;100934.72;;;19.37;60.04
69306;BME280;56427;51.580;4.656;2023-09-19T12:12:52;100945.31;;;19.26;60.01
69306;BME280;56427;51.580;4.656;2023-09-19T12:15:27;100929.34;;;19.39;59.96
69306;BME280;56427;51.580;4.656;2023-09-19T12:17:59;100919.47;;;19.31;59.78
69306;BME280;56427;51.580;4.656;2023-09-19T12:20:25;100928.44;;;19.29;60.25
69306;BME280;56427;51.580;4.656;2023-09-19T12:22:50;100929.25;;;19.29;59.66
69306;BME280;56427;51.580;4.656;2023-09-19T12:25:16;100938.50;;;19.45;59.88
69306;BME280;56427;51.580;4.656;2023-09-19T12:30:12;100918.81;;;19.39;59.73
69306;BME280;56427;51.580;4.656;2023-09-19T12:32:40;100923.03;;;19.51;59.54
69306;BME280;56427;51.580;4.656;2023-09-19T12:35:09;100916.50;;;19.46;59.33
69306;BME280;56427;51.580;4.656;2023-09-19T12:37:37;100920.34;;;19.41;59.69
69306;BME280;56427;51.580;4.656;2023-09-19T12:40:09;100910.47;;;19.34;60.11
69306;BME280;56427;51.580;4.656;2023-09-19T12:42:47;100926.75;;;19.28;59.85
69306;BME280;56427;51.580;4.656;2023-09-19T12:45:14;100924.91;;;19.39;59.70
69306;BME280;56427;51.580;4.656;2023-09-19T12:50:29;100922.22;;;19.51;59.99
69306;BME280;56427;51.580;4.656;2023-09-19T12:52:55;100923.69;;;19.64;59.10
69306;BME280;56427;51.580;4.656;2023-09-19T12:55:29;100926.50;;;19.73;58.68
69306;BME280;56427;51.580;4.656;2023-09-19T12:58:13;100917.97;;;19.80;58.16
69306;BME280;56427;51.580;4.656;2023-09-19T13:00:44;100918.50;;;19.74;58.87
69306;BME280;56427;51.580;4.656;2023-09-19T13:03:27;100918.00;;;19.90;58.67
69306;BME280;56427;51.580;4.656;2023-09-19T13:06:01;100918.38;;;19.85;58.21
69306;BME280;56427;51.580;4.656;2023-09-19T13:08:39;100939.63;;;19.63;58.88
69306;BME280;56427;51.580;4.656;2023-09-19T13:11:11;100923.03;;;19.72;58.95
69306;BME280;56427;51.580;4.656;2023-09-19T13:13:42;100928.81;;;20.27;58.44
69306;BME280;56427;51.580;4.656;2023-09-19T13:16:09;100927.31;;;20.34;57.37
69306;BME280;56427;51.580;4.656;2023-09-19T13:18:46;100919.63;;;20.52;56.54
69306;BME280;56427;51.580;4.656;2023-09-19T13:21:13;100926.50;;;20.43;57.30
69306;BME280;56427;51.580;4.656;2023-09-19T13:24:23;100924.06;;;20.52;57.52
69306;BME280;56427;51.580;4.656;2023-09-19T13:26:53;100920.75;;;20.19;57.62
69306;BME280;56427;51.580;4.656;2023-09-19T13:29:19;100914.38;;;20.21;57.88
69306;BME280;56427;51.580;4.656;2023-09-19T13:31:51;100914.78;;;20.17;56.67
69306;BME280;56427;51.580;4.656;2023-09-19T13:34:20;100911.38;;;19.96;57.87
69306;BME280;56427;51.580;4.656;2023-09-19T13:36:46;100907.78;;;19.97;57.47
69306;BME280;56427;51.580;4.656;2023-09-19T13:39:18;100913.94;;;20.07;58.66
69306;BME280;56427;51.580;4.656;2023-09-19T13:41:47;100937.03;;;20.03;57.28
69306;BME280;56427;51.580;4.656;2023-09-19T13:44:14;100898.97;;;20.17;57.79
69306;BME280;56427;51.580;4.656;2023-09-19T13:46:40;100903.19;;;19.99;56.52
69306;BME280;56427;51.580;4.656;2023-09-19T13:49:10;100906.13;;;19.96;57.50
69306;BME280;56427;51.580;4.656;2023-09-19T13:51:37;100903.56;;;19.84;57.74